Time;durP1;ratioP1;P1;durP2;ratioP2;P2;SDS_P1;SDS_P2;PMS_P1;PMS_P2;Temp;Humidity;BMP_temperature;BMP_pressure;BME280_temperature;BME280_humidity;BME280_pressure;Samples;Min_cycle;Max_cycle;Signal;HPM_P1;HPM_P2
2023/03/07 00:01:04;;;;;;;17.55;13.18;;;;;;;5.03;47.98;98077.16;5108212;28;20046;-73
2023/03/07 00:03:31;;;;;;;15.60;11.93;;;;;;;5.01;47.88;98079.88;5107614;28;20051;-72
2023/03/07 00:06:03;;;;;;;17.63;11.98;;;;;;;5.00;48.30;98074.72;5108695;28;20044;-72
2023/03/07 00:08:30;;;;;;;16.17;11.32;;;;;;;4.64;48.08;98038.09;5108152;28;20126;-72
2023/03/07 00:11:01;;;;;;;19.52;12.48;;;;;;;4.97;48.10;98082.75;5108910;28;20051;-72
2023/03/07 00:13:31;;;;;;;17.00;12.57;;;;;;;4.94;48.02;98083.75;5106028;28;20040;-72
2023/03/07 00:16:02;;;;;;;18.15;12.27;;;;;;;4.93;48.24;98081.22;5107897;28;20115;-72
2023/03/07 00:18:29;;;;;;;16.90;12.20;;;;;;;4.92;48.23;98069.00;5108509;28;20101;-72
2023/03/07 00:20:58;;;;;;;17.50;11.88;;;;;;;4.90;48.14;98069.09;5107850;28;20040;-73
2023/03/07 00:23:25;;;;;;;18.40;11.70;;;;;;;4.90;48.28;98068.25;5107555;28;20048;-72
2023/03/07 00:25:58;;;;;;;18.98;11.45;;;;;;;4.87;48.54;98068.38;5106885;28;20373;-72
2023/03/07 00:28:24;;;;;;;19.45;13.25;;;;;;;4.87;48.32;98063.13;5107692;28;20054;-72
2023/03/07 00:30:52;;;;;;;16.48;12.85;;;;;;;4.85;48.35;98063.22;5107328;28;20058;-72
2023/03/07 00:33:19;;;;;;;18.08;12.77;;;;;;;4.84;48.40;98060.66;5107917;28;20286;-73
2023/03/07 00:35:55;;;;;;;17.83;13.20;;;;;;;4.84;48.95;98060.66;5107569;28;20074;-73
2023/03/07 00:38:22;;;;;;;16.00;11.88;;;;;;;4.84;48.51;98058.88;5107176;28;20077;-73
2023/03/07 00:40:57;;;;;;;21.27;12.55;;;;;;;4.82;48.99;98063.38;5107483;28;20040;-72
2023/03/07 00:43:23;;;;;;;;;;;;;;;4.74;49.93;98060.28;5107976;28;20085;-72
2023/03/07 00:45:51;;;;;;;20.15;12.50;;;;;;;4.72;48.88;98060.38;5106896;28;19916;-72
2023/03/07 00:48:18;;;;;;;19.70;13.88;;;;;;;4.74;48.59;98061.13;5107573;28;20226;-73
2023/03/07 00:50:45;;;;;;;17.48;12.38;;;;;;;4.75;48.58;98057.59;5106405;28;20032;-73
2023/03/07 00:53:12;;;;;;;21.15;13.05;;;;;;;4.75;48.85;98062.00;5107514;28;20111;-73
2023/03/07 00:55:39;;;;;;;18.73;12.98;;;;;;;4.74;48.82;98055.03;5106954;28;20052;-73
2023/03/07 00:58:06;;;;;;;20.65;13.52;;;;;;;4.52;48.74;98015.94;5107336;28;20048;-72
2023/03/07 01:00:33;;;;;;;21.52;14.52;;;;;;;4.73;48.78;98048.09;5107020;28;20315;-72
2023/03/07 01:03:03;;;;;;;18.25;13.27;;;;;;;4.71;48.95;98049.94;5107545;28;20046;-72
2023/03/07 01:05:30;;;;;;;18.88;13.27;;;;;;;4.67;49.07;98049.25;5107281;28;20063;-74
2023/03/07 01:07:56;;;;;;;17.02;11.93;;;;;;;4.66;49.08;98050.19;5107546;28;20036;-73
2023/03/07 01:10:25;;;;;;;19.60;13.63;;;;;;;4.44;49.13;98018.97;5107402;28;20050;-73
2023/03/07 01:12:52;;;;;;;19.35;12.98;;;;;;;4.63;49.26;98046.88;5106835;28;20185;-73
2023/03/07 01:15:19;;;;;;;19.40;13.15;;;;;;;4.64;49.19;98049.44;5106753;28;20035;-73
2023/03/07 01:17:46;;;;;;;22.17;14.00;;;;;;;4.61;49.52;98039.09;5106723;28;20051;-74
2023/03/07 01:20:14;;;;;;;20.75;14.30;;;;;;;4.58;49.55;98041.88;5105869;28;20054;-73
2023/03/07 01:22:41;;;;;;;18.15;13.32;;;;;;;4.59;49.37;98043.56;5106913;28;20052;-73
2023/03/07 01:25:08;;;;;;;19.65;14.15;;;;;;;4.55;49.58;98047.28;5105531;28;20050;-72
2023/03/07 01:27:35;;;;;;;20.83;13.80;;;;;;;4.53;49.69;98041.25;5106567;28;20062;-72
2023/03/07 01:30:02;;;;;;;20.80;14.13;;;;;;;4.54;49.57;98034.22;5107074;28;20044;-73
2023/03/07 01:32:29;;;;;;;18.17;13.38;;;;;;;4.36;50.02;98007.19;5106457;28;20107;-73
2023/03/07 01:34:56;;;;;;;18.80;13.38;;;;;;;4.52;49.83;98034.31;5105656;28;20050;-72
2023/03/07 01:37:24;;;;;;;21.83;13.75;;;;;;;4.50;49.84;98025.69;5106640;28;20047;-73
2023/03/07 01:39:52;;;;;;;17.98;12.32;;;;;;;4.48;49.68;98027.53;5106623;28;20321;-73
2023/03/07 01:42:18;;;;;;;18.25;12.43;;;;;;;4.46;49.84;98026.75;5106893;28;20070;-72
2023/03/07 01:45:03;;;;;;;19.63;13.95;;;;;;;4.45;50.97;98025.91;5105968;28;20040;-73
2023/03/07 01:47:30;;;;;;;21.67;14.02;;;;;;;4.41;50.13;98020.91;5106816;28;20051;-73
2023/03/07 01:49:59;;;;;;;20.85;12.77;;;;;;;4.39;50.31;98020.13;5106055;28;20046;-73
2023/03/07 01:52:32;;;;;;;19.38;13.30;;;;;;;4.36;50.34;98018.50;5106150;28;20036;-74
2023/03/07 01:55:05;;;;;;;20.48;13.80;;;;;;;4.35;50.29;98011.56;5105092;28;20040;-74
2023/03/07 01:57:35;;;;;;;17.67;13.10;;;;;;;4.34;50.30;98011.66;5105189;28;20081;-74
2023/03/07 02:00:09;;;;;;;19.48;12.95;;;;;;;3.26;50.63;97841.53;5105268;28;20191;-74
2023/03/07 02:02:38;;;;;;;20.10;13.18;;;;;;;4.33;50.29;98008.19;5105186;28;20040;-73
2023/03/07 02:05:10;;;;;;;18.75;13.15;;;;;;;3.51;50.54;97900.47;5106240;28;20115;-73
2023/03/07 02:07:43;;;;;;;17.77;12.40;;;;;;;3.51;50.79;97868.19;5106161;28;20052;-73
2023/03/07 02:10:12;;;;;;;18.58;13.90;;;;;;;4.31;50.46;97998.69;5106434;28;20048;-73
2023/03/07 02:12:41;;;;;;;20.23;12.90;;;;;;;4.29;50.53;98004.03;5105102;28;20044;-73
2023/03/07 02:15:09;;;;;;;20.35;13.30;;;;;;;4.29;50.53;97996.16;5105846;28;20040;-72
2023/03/07 02:17:37;;;;;;;21.00;13.27;;;;;;;4.30;50.40;97999.63;5106341;28;20040;-73
2023/03/07 02:20:17;;;;;;;20.27;12.93;;;;;;;3.23;51.13;97815.50;5105904;28;20300;-73
2023/03/07 02:22:45;;;;;;;19.30;13.10;;;;;;;4.29;50.59;98000.53;5105790;28;20115;-73
2023/03/07 02:25:18;;;;;;;19.25;14.02;;;;;;;4.28;50.83;97986.59;5106286;28;20044;-73
2023/03/07 02:27:49;;;;;;;17.65;12.82;;;;;;;4.06;50.72;97957.13;5105946;28;20177;-73
2023/03/07 02:30:15;;;;;;;19.38;13.20;;;;;;;4.29;50.55;97990.91;5105717;28;20219;-73
2023/03/07 02:32:42;;;;;;;19.95;12.68;;;;;;;4.29;50.81;97990.06;5104755;28;20318;-73
2023/03/07 02:35:13;;;;;;;18.02;13.35;;;;;;;3.72;50.74;97910.78;5105869;28;20059;-73
2023/03/07 02:37:43;;;;;;;18.08;13.35;;;;;;;4.27;50.78;97984.03;5108221;28;20081;-72
2023/03/07 02:40:12;;;;;;;17.27;11.90;;;;;;;3.46;50.73;97839.59;5109769;28;20208;-72
2023/03/07 02:42:41;;;;;;;20.20;13.73;;;;;;;4.25;50.94;97980.66;5110043;28;20057;-72
2023/03/07 02:45:12;;;;;;;18.98;13.68;;;;;;;4.03;51.05;97931.06;5110075;28;20040;-72
2023/03/07 02:47:39;;;;;;;20.58;12.82;;;;;;;3.65;50.75;97870.97;5110187;28;20048;-72
2023/03/07 02:50:07;;;;;;;20.50;14.32;;;;;;;4.26;50.93;97969.22;5110247;28;20111;-72
2023/03/07 02:52:33;;;;;;;18.98;13.65;;;;;;;4.28;50.85;97972.63;5109633;28;20040;-72
2023/03/07 02:55:00;;;;;;;19.65;13.55;;;;;;;4.29;50.83;97971.69;5109327;28;20054;-72
2023/03/07 02:57:27;;;;;;;20.63;13.93;;;;;;;4.29;50.75;97969.06;5109457;28;20047;-72
2023/03/07 02:59:54;;;;;;;23.13;13.70;;;;;;;4.29;50.85;97966.44;5109625;28;20296;-72
2023/03/07 03:02:22;;;;;;;20.17;13.35;;;;;;;4.27;50.90;97970.94;5109860;28;20048;-72
2023/03/07 03:04:49;;;;;;;18.90;13.55;;;;;;;4.28;51.05;97967.38;5109344;28;20050;-72
2023/03/07 03:07:15;;;;;;;20.55;14.05;;;;;;;4.26;50.91;97964.00;5109553;28;20335;-72
2023/03/07 03:09:42;;;;;;;16.40;12.60;;;;;;;4.28;50.90;97965.59;5109787;28;20048;-72
2023/03/07 03:12:09;;;;;;;18.25;12.93;;;;;;;4.30;50.79;97963.75;5108666;28;20036;-73
2023/03/07 03:14:36;;;;;;;17.90;12.25;;;;;;;4.32;50.70;97961.91;5108595;28;20040;-73
2023/03/07 03:17:03;;;;;;;17.88;12.73;;;;;;;4.33;50.80;97963.59;5108192;28;20308;-73
2023/03/07 03:19:31;;;;;;;20.00;12.98;;;;;;;4.32;50.96;97959.28;5109766;28;20296;-73
2023/03/07 03:21:58;;;;;;;18.95;12.02;;;;;;;4.34;50.83;97956.56;5109570;28;20042;-73
2023/03/07 03:24:25;;;;;;;24.60;13.57;;;;;;;4.31;50.78;97962.81;5108160;28;20048;-73
2023/03/07 03:26:55;;;;;;;19.60;14.18;;;;;;;4.31;50.97;97962.81;5108115;28;20044;-73
2023/03/07 03:29:21;;;;;;;17.73;13.55;;;;;;;4.08;50.99;97924.66;5108062;28;20300;-73
2023/03/07 03:31:49;;;;;;;20.20;13.45;;;;;;;4.34;50.91;97959.19;5107960;28;20048;-73
2023/03/07 03:34:16;;;;;;;20.48;13.73;;;;;;;4.33;50.80;97960.13;5107898;28;20036;-73
2023/03/07 03:36:44;;;;;;;17.40;11.80;;;;;;;4.35;50.68;97958.25;5107636;28;20044;-73
2023/03/07 03:39:11;;;;;;;19.67;13.25;;;;;;;4.35;50.67;97958.25;5109120;28;20055;-73
2023/03/07 03:41:38;;;;;;;20.40;13.05;;;;;;;4.33;50.82;97971.47;5109155;28;20048;-72
2023/03/07 03:44:05;;;;;;;21.63;13.93;;;;;;;3.20;50.90;97767.59;5109097;28;20036;-73
2023/03/07 03:46:31;;;;;;;15.77;11.90;;;;;;;3.97;50.88;97900.75;5108744;28;20046;-72
2023/03/07 03:48:58;;;;;;;20.23;13.52;;;;;;;4.31;50.93;97960.19;5108323;28;20042;-73
2023/03/07 03:51:25;;;;;;;20.90;13.73;;;;;;;4.33;50.81;97963.59;5108425;28;20081;-72
2023/03/07 03:53:53;;;;;;;17.85;12.93;;;;;;;3.79;50.78;97872.88;5108695;28;20040;-73
2023/03/07 03:56:22;;;;;;;17.00;12.70;;;;;;;4.34;50.90;97962.66;5108302;28;20054;-73
2023/03/07 03:58:50;;;;;;;19.98;13.50;;;;;;;4.28;51.04;97959.50;5108492;28;20185;-73
2023/03/07 04:01:21;;;;;;;20.35;12.70;;;;;;;4.29;51.37;97964.69;5107709;28;20048;-73
2023/03/07 04:03:50;;;;;;;21.00;13.18;;;;;;;4.27;51.27;97970.94;5108711;28;20047;-73
2023/03/07 04:06:19;;;;;;;19.27;12.65;;;;;;;3.96;51.41;97932.28;5108655;28;20264;-73
2023/03/07 04:08:46;;;;;;;19.75;12.77;;;;;;;4.23;51.44;97961.53;5108593;28;20040;-72
2023/03/07 04:11:14;;;;;;;19.95;13.25;;;;;;;4.20;51.64;97970.41;5107952;28;20074;-73
2023/03/07 04:13:41;;;;;;;19.35;13.43;;;;;;;4.16;51.60;97969.66;5108214;28;20043;-73
2023/03/07 04:16:08;;;;;;;19.13;13.57;;;;;;;4.14;51.75;97962.81;5107077;28;20040;-73
2023/03/07 04:18:36;;;;;;;23.15;13.70;;;;;;;3.92;51.64;97928.13;5108358;28;20044;-73
2023/03/07 04:21:04;;;;;;;22.38;13.23;;;;;;;4.11;51.70;97961.19;5108385;28;20058;-72
2023/03/07 04:23:31;;;;;;;18.85;12.93;;;;;;;4.07;51.74;97964.91;5107753;28;20239;-72
2023/03/07 04:26:00;;;;;;;18.77;12.15;;;;;;;4.06;51.71;97964.97;5108254;28;20048;-73
2023/03/07 04:28:41;;;;;;;18.27;12.55;;;;;;;4.02;51.81;97956.41;5107649;28;20046;-72
2023/03/07 04:31:08;;;;;;;16.63;11.45;;;;;;;4.01;51.62;97952.09;5106902;28;20093;-72
2023/03/07 04:33:34;;;;;;;20.23;12.55;;;;;;;4.00;51.71;97958.28;5106977;28;20040;-72
2023/03/07 04:36:01;;;;;;;16.48;12.30;;;;;;;4.02;51.62;97958.19;5108119;28;20039;-72
2023/03/07 04:38:28;;;;;;;17.15;12.02;;;;;;;3.81;51.59;97919.03;5107697;28;20048;-72
2023/03/07 04:40:55;;;;;;;19.33;12.75;;;;;;;4.01;51.25;97949.47;5107533;28;20107;-72
2023/03/07 04:43:21;;;;;;;18.02;12.68;;;;;;;4.01;51.32;97949.47;5107021;28;20036;-72
2023/03/07 04:45:52;;;;;;;17.92;11.85;;;;;;;4.02;51.24;97956.41;5107623;28;20040;-72
2023/03/07 04:48:18;;;;;;;17.77;12.90;;;;;;;4.02;51.14;97945.09;5106439;28;20055;-72
2023/03/07 04:50:48;;;;;;;19.67;12.82;;;;;;;4.00;51.07;97947.78;5106384;28;20330;-72
2023/03/07 04:53:15;;;;;;;17.67;11.82;;;;;;;3.98;51.31;97947.00;5107420;28;20239;-71
2023/03/07 04:55:41;;;;;;;18.08;12.10;;;;;;;3.98;51.42;97951.41;5107009;28;20062;-72
2023/03/07 04:58:12;;;;;;;14.95;11.25;;;;;;;3.98;51.26;97956.66;5106155;28;20055;-72
2023/03/07 05:00:40;;;;;;;18.08;12.02;;;;;;;3.95;51.28;97962.06;5106751;28;20292;-72
2023/03/07 05:03:09;;;;;;;15.38;11.10;;;;;;;3.92;51.51;97955.19;5106234;28;20296;-72
2023/03/07 05:05:36;;;;;;;17.58;11.95;;;;;;;3.93;51.15;97962.13;5106129;28;20048;-72
2023/03/07 05:08:03;;;;;;;14.75;11.07;;;;;;;3.95;51.18;97962.06;5107370;28;20044;-72
2023/03/07 05:10:31;;;;;;;17.58;12.55;;;;;;;3.76;51.23;97955.13;5106565;28;20047;-72
2023/03/07 05:12:57;;;;;;;17.48;12.23;;;;;;;3.96;50.98;97959.34;5106117;28;20039;-72
2023/03/07 05:15:24;;;;;;;16.65;12.07;;;;;;;3.96;51.12;97961.97;5106001;28;20055;-72
2023/03/07 05:17:51;;;;;;;17.35;12.65;;;;;;;3.98;50.95;97970.59;5105873;28;20032;-72
2023/03/07 05:20:20;;;;;;;18.42;10.35;;;;;;;3.99;51.02;97968.84;5106955;28;20308;-72
2023/03/07 05:22:47;;;;;;;15.52;11.45;;;;;;;4.00;50.87;97963.50;5105938;28;20036;-71
2023/03/07 05:25:14;;;;;;;17.17;11.07;;;;;;;3.89;50.89;97944.88;5106653;28;20036;-72
2023/03/07 05:27:41;;;;;;;19.85;12.65;;;;;;;3.84;50.90;97932.00;5107144;28;20075;-72
2023/03/07 05:30:11;;;;;;;14.63;11.60;;;;;;;4.00;50.89;97967.91;5106602;28;20051;-72
2023/03/07 05:32:38;;;;;;;14.15;10.40;;;;;;;2.82;50.68;97777.38;5106712;28;20047;-72
2023/03/07 05:35:05;;;;;;;17.33;10.95;;;;;;;3.75;50.80;97921.13;5106165;28;20054;-72
2023/03/07 05:37:33;;;;;;;16.30;11.93;;;;;;;3.98;50.83;97968.00;5105338;28;20036;-72
2023/03/07 05:40:00;;;;;;;16.60;12.27;;;;;;;3.98;50.69;97964.53;5107095;28;20093;-72
2023/03/07 05:42:27;;;;;;;16.90;11.27;;;;;;;3.96;50.76;97967.22;5106782;28;20070;-71
2023/03/07 05:44:53;;;;;;;14.60;10.80;;;;;;;3.98;50.85;97972.38;5106488;28;20036;-70
2023/03/07 05:47:20;;;;;;;19.10;12.70;;;;;;;3.99;50.77;97968.84;5106713;28;20119;-72
2023/03/07 05:49:47;;;;;;;18.58;12.23;;;;;;;3.98;50.83;97969.75;5106658;28;20040;-72
2023/03/07 05:52:13;;;;;;;16.33;11.18;;;;;;;4.00;50.85;97973.16;5106359;28;20050;-71
2023/03/07 05:54:42;;;;;;;17.35;11.63;;;;;;;4.00;50.79;97968.75;5104879;28;20197;-72
2023/03/07 05:57:08;;;;;;;16.05;11.63;;;;;;;4.00;50.72;97968.75;5106177;28;20312;-72
2023/03/07 05:59:35;;;;;;;19.63;12.73;;;;;;;4.03;50.79;97973.84;5105335;28;20040;-72
2023/03/07 06:02:02;;;;;;;18.50;11.55;;;;;;;4.06;50.77;97967.59;5105886;28;20284;-71
2023/03/07 06:04:28;;;;;;;17.70;12.00;;;;;;;4.06;50.64;97976.31;5104966;28;20050;-72
2023/03/07 06:06:55;;;;;;;14.32;10.85;;;;;;;4.06;50.72;97968.44;5106049;28;20044;-72
2023/03/07 06:09:24;;;;;;;15.27;10.77;;;;;;;4.07;50.65;97966.66;5106338;28;20288;-72
2023/03/07 06:11:52;;;;;;;18.95;11.45;;;;;;;4.08;50.67;97960.50;5104948;28;20052;-72
2023/03/07 06:14:19;;;;;;;15.70;10.77;;;;;;;4.10;50.60;97970.00;5106329;28;20040;-72
2023/03/07 06:16:46;;;;;;;15.32;10.77;;;;;;;3.31;50.60;97845.63;5105654;28;20111;-72
2023/03/07 06:19:13;;;;;;;15.98;11.73;;;;;;;0.67;50.42;97399.41;5106121;28;20044;-72
2023/03/07 06:21:40;;;;;;;15.25;11.13;;;;;;;4.15;50.58;97975.00;5104735;28;20219;-72
2023/03/07 06:24:07;;;;;;;17.45;11.13;;;;;;;3.97;50.67;97940.06;5106014;28;20054;-72
2023/03/07 06:26:34;;;;;;;13.27;10.93;;;;;;;4.10;50.81;97975.22;5106044;28;20051;-72
2023/03/07 06:29:02;;;;;;;19.40;11.55;;;;;;;0.56;50.75;97386.88;5105516;28;20089;-72
2023/03/07 06:31:29;;;;;;;19.77;12.55;;;;;;;4.11;50.93;97983.94;5105980;28;20043;-72
2023/03/07 06:33:55;;;;;;;17.83;11.63;;;;;;;3.93;50.90;97946.41;5105513;28;20052;-72
2023/03/07 06:36:22;;;;;;;19.20;11.65;;;;;;;4.11;50.85;97974.31;5105537;28;20050;-72
2023/03/07 06:38:49;;;;;;;15.07;11.20;;;;;;;4.12;50.83;97976.00;5105809;28;20115;-72
2023/03/07 06:41:16;;;;;;;16.50;11.38;;;;;;;3.91;50.88;97942.16;5104407;28;20040;-72
2023/03/07 06:43:43;;;;;;;15.65;11.15;;;;;;;4.01;50.72;97952.09;5105157;28;20051;-72
2023/03/07 06:46:11;;;;;;;15.98;10.57;;;;;;;3.82;50.90;97919.88;5105633;28;20056;-72
2023/03/07 06:48:38;;;;;;;16.48;11.27;;;;;;;4.09;50.96;97967.44;5104337;28;20304;-72
2023/03/07 06:51:07;;;;;;;20.60;12.40;;;;;;;4.09;50.98;97972.69;5105158;28;20120;-72
2023/03/07 06:53:34;;;;;;;15.02;11.38;;;;;;;4.08;50.90;97966.59;5105509;28;20050;-72
2023/03/07 06:56:00;;;;;;;17.15;11.85;;;;;;;4.09;50.94;97968.28;5104497;28;20052;-72
2023/03/07 06:58:28;;;;;;;18.55;11.85;;;;;;;4.11;51.04;97970.84;5105590;28;20044;-72
2023/03/07 07:00:55;;;;;;;19.25;12.73;;;;;;;4.11;50.97;97971.69;5105313;28;20201;-72
2023/03/07 07:03:23;;;;;;;24.73;13.77;;;;;;;4.12;51.06;97968.13;5104170;28;20051;-72
2023/03/07 07:05:50;;;;;;;16.00;10.50;;;;;;;3.98;50.90;97944.41;5105044;28;20036;-72
2023/03/07 07:08:16;;;;;;;15.80;11.70;;;;;;;3.90;50.80;97932.59;5105127;28;20058;-72
2023/03/07 07:10:43;;;;;;;16.38;11.48;;;;;;;4.13;50.71;97969.84;5105436;28;20250;-72
2023/03/07 07:13:12;;;;;;;18.23;12.32;;;;;;;4.17;50.94;97967.91;5104110;28;20047;-72
2023/03/07 07:15:39;;;;;;;21.27;12.68;;;;;;;4.18;50.51;97965.19;5105054;28;20097;-72
2023/03/07 07:18:05;;;;;;;17.45;10.93;;;;;;;4.20;50.77;97967.78;5105468;28;20214;-72
2023/03/07 07:20:34;;;;;;;18.63;12.65;;;;;;;4.21;50.81;97966.84;5105230;28;20177;-72
2023/03/07 07:23:00;;;;;;;15.60;11.15;;;;;;;4.24;50.90;97971.09;5106584;28;20295;-71
2023/03/07 07:25:27;;;;;;;16.23;10.68;;;;;;;2.59;50.69;97700.94;5109253;28;20048;-72
2023/03/07 07:27:54;;;;;;;15.25;10.95;;;;;;;4.28;50.72;97977.88;5107743;28;20036;-71
2023/03/07 07:30:21;;;;;;;16.35;11.90;;;;;;;4.33;50.76;97981.94;5108643;28;20042;-72
2023/03/07 07:32:47;;;;;;;17.10;10.27;;;;;;;4.36;50.49;97978.31;5107977;28;20269;-72
2023/03/07 07:35:14;;;;;;;16.60;11.02;;;;;;;4.37;50.42;97987.88;5108833;28;20051;-72
2023/03/07 07:37:42;;;;;;;14.15;10.00;;;;;;;4.38;50.57;97984.34;5108662;28;20044;-72
2023/03/07 07:40:10;;;;;;;17.13;10.60;;;;;;;4.40;50.46;97990.34;5108530;28;20283;-72
2023/03/07 07:42:37;;;;;;;15.55;11.55;;;;;;;4.27;50.51;97978.78;5108072;28;20098;-72
2023/03/07 07:45:05;;;;;;;17.05;12.45;;;;;;;4.46;50.57;97984.78;5108609;28;20288;-72
2023/03/07 07:47:32;;;;;;;21.00;12.50;;;;;;;4.49;50.48;97982.84;5108527;28;20044;-73
2023/03/07 07:49:58;;;;;;;15.82;11.80;;;;;;;4.54;50.45;97979.13;5108891;28;20040;-72
2023/03/07 07:52:25;;;;;;;18.13;11.68;;;;;;;4.56;50.44;97983.38;5108671;28;20040;-73
2023/03/07 07:54:53;;;;;;;16.90;12.18;;;;;;;4.63;50.43;97982.13;5107292;28;20059;-73
2023/03/07 07:57:20;;;;;;;16.58;11.05;;;;;;;4.69;50.71;97978.31;5107386;28;20040;-73
2023/03/07 07:59:48;;;;;;;17.15;11.68;;;;;;;4.75;50.21;97978.84;5108618;28;20280;-73
2023/03/07 08:02:14;;;;;;;19.58;12.05;;;;;;;4.84;50.24;97982.75;5108265;28;20062;-73
2023/03/07 08:04:41;;;;;;;18.02;11.52;;;;;;;4.66;50.09;97936.50;5108086;28;20051;-73
2023/03/07 08:07:08;;;;;;;16.35;12.18;;;;;;;4.55;50.11;97963.31;5108464;28;20262;-73
2023/03/07 08:09:35;;;;;;;18.98;12.55;;;;;;;1.44;50.32;97380.00;5107190;28;20055;-72
2023/03/07 08:12:04;;;;;;;19.17;12.75;;;;;;;4.74;50.36;97935.16;5108029;28;20154;-73
2023/03/07 08:14:33;;;;;;;20.05;14.00;;;;;;;5.12;50.67;97966.38;5108193;28;20185;-73
2023/03/07 08:17:00;;;;;;;20.88;12.93;;;;;;;5.17;50.54;97960.88;5108522;28;20044;-73
2023/03/07 08:19:26;;;;;;;19.60;13.07;;;;;;;5.22;50.33;97954.44;5106570;28;20215;-73
2023/03/07 08:21:53;;;;;;;17.00;12.43;;;;;;;5.12;50.45;97935.72;5108066;28;20053;-73
2023/03/07 08:24:20;;;;;;;19.98;13.43;;;;;;;4.24;50.18;97766.53;5108273;28;20066;-73
2023/03/07 08:26:47;;;;;;;17.45;12.23;;;;;;;4.53;49.86;97772.78;5107044;28;20046;-73
2023/03/07 08:29:15;;;;;;;21.98;13.55;;;;;;;4.68;49.79;97759.66;5107578;28;20218;-73
2023/03/07 08:31:43;;;;;;;19.23;12.73;;;;;;;5.92;49.78;97936.41;5108162;28;20048;-73
2023/03/07 08:34:10;;;;;;;17.30;11.93;;;;;;;5.96;49.64;97943.19;5107052;28;20247;-73
2023/03/07 08:36:38;;;;;;;19.98;13.48;;;;;;;5.99;49.65;97935.13;5107970;28;20042;-73
2023/03/07 08:39:04;;;;;;;21.85;13.98;;;;;;;6.06;49.57;97945.19;5107762;28;20066;-73
2023/03/07 08:41:31;;;;;;;17.52;11.55;;;;;;;6.10;49.72;97936.16;5107346;28;20040;-73
2023/03/07 08:43:58;;;;;;;19.70;14.88;;;;;;;5.92;49.60;97895.19;5107315;28;20044;-73
2023/03/07 08:46:26;;;;;;;23.30;13.80;;;;;;;6.22;49.74;97933.75;5107225;28;20048;-73
2023/03/07 08:48:53;;;;;;;16.70;12.18;;;;;;;6.30;49.42;97924.44;5107618;28;20047;-73
2023/03/07 08:51:20;;;;;;;20.20;12.90;;;;;;;6.39;49.47;97934.41;5107631;28;20043;-73
2023/03/07 08:53:47;;;;;;;15.05;12.40;;;;;;;6.22;49.21;97894.28;5106861;28;20050;-73
2023/03/07 08:56:16;;;;;;;17.55;11.82;;;;;;;5.76;49.12;97805.88;5106785;28;20215;-73
2023/03/07 08:58:43;;;;;;;16.67;11.68;;;;;;;6.59;48.91;97930.56;5107216;28;20303;-73
2023/03/07 09:01:11;;;;;;;16.02;10.98;;;;;;;6.63;48.71;97926.81;5107268;28;20048;-73
2023/03/07 09:03:40;;;;;;;16.45;13.02;;;;;;;6.63;48.52;97916.28;5106864;28;20137;-73
2023/03/07 09:06:07;;;;;;;16.27;12.10;;;;;;;6.67;48.59;97924.81;5106051;28;20035;-73
2023/03/07 09:08:34;;;;;;;15.90;11.95;;;;;;;6.72;48.13;97920.97;5106321;28;20050;-73
2023/03/07 09:11:02;;;;;;;14.95;11.18;;;;;;;6.34;48.18;97869.84;5106786;28;20040;-73
2023/03/07 09:13:29;;;;;;;18.10;12.85;;;;;;;6.61;47.98;97889.19;5106947;28;20067;-73
2023/03/07 09:15:56;;;;;;;16.05;11.27;;;;;;;6.88;47.71;97913.00;5106875;28;20322;-73
2023/03/07 09:18:22;;;;;;;16.42;11.00;;;;;;;6.90;47.46;97912.88;5105724;28;20044;-73
2023/03/07 09:20:50;;;;;;;19.10;10.98;;;;;;;6.93;47.59;97924.06;5106978;28;20040;-73
2023/03/07 09:23:17;;;;;;;14.82;10.27;;;;;;;6.98;47.38;97914.09;5106767;28;20109;-73
2023/03/07 09:25:44;;;;;;;14.65;10.30;;;;;;;7.01;47.09;97918.31;5106314;28;20036;-73
2023/03/07 09:28:11;;;;;;;16.65;11.80;;;;;;;7.00;47.20;97916.63;5106705;28;20044;-73
2023/03/07 09:30:38;;;;;;;14.98;10.43;;;;;;;7.03;47.22;97913.81;5106348;28;20048;-73
2023/03/07 09:33:05;;;;;;;18.67;13.48;;;;;;;7.05;47.31;97909.28;5106084;28;20051;-73
2023/03/07 09:35:32;;;;;;;15.93;11.75;;;;;;;6.92;47.45;97888.16;5106276;28;20039;-73
2023/03/07 09:38:01;;;;;;;17.33;10.80;;;;;;;7.09;47.41;97907.31;5106661;28;20067;-73
2023/03/07 09:40:28;;;;;;;14.82;10.65;;;;;;;7.17;47.33;97900.59;5105272;28;20047;-73
2023/03/07 09:43:01;;;;;;;15.15;10.77;;;;;;;7.24;46.90;97909.81;5106266;28;20044;-73
2023/03/07 09:45:59;;;;;;;14.95;11.43;;;;;;;7.33;46.40;97892.56;5105024;28;20246;-73
2023/03/07 09:48:50;;;;;;;15.80;11.90;;;;;;;7.40;45.90;97891.22;5094422;28;20064;-73
2023/03/07 09:51:21;;;;;;;13.65;10.25;;;;;;;7.51;46.64;97885.25;5106015;28;20040;-73
2023/03/07 09:53:53;;;;;;;15.15;11.27;;;;;;;7.70;46.26;97877.81;5105268;28;20040;-72
2023/03/07 09:56:24;;;;;;;15.77;12.20;;;;;;;7.93;45.93;97884.19;5105268;28;20055;-74
2023/03/07 09:58:58;;;;;;;12.43;10.20;;;;;;;6.84;44.91;97681.53;5106176;28;20043;-74
2023/03/07 10:01:29;;;;;;;16.42;11.40;;;;;;;8.12;45.14;97879.34;5106231;28;20322;-74
2023/03/07 10:04:03;;;;;;;16.02;10.05;;;;;;;7.48;43.21;97737.84;5105781;28;20040;-73
2023/03/07 10:06:34;;;;;;;9.30;7.43;;;;;;;8.51;43.01;97857.25;5105379;28;20036;-74
2023/03/07 10:09:05;;;;;;;12.70;8.90;;;;;;;8.68;43.17;97851.63;5106400;28;20043;-74
2023/03/07 10:11:51;;;;;;;11.52;9.73;;;;;;;8.33;41.30;97789.91;5104795;28;20066;-73
2023/03/07 10:14:35;;;;;;;10.88;8.55;;;;;;;7.76;40.67;97658.50;5105627;28;20058;-74
2023/03/07 10:17:12;;;;;;;11.48;9.27;;;;;;;8.82;41.22;97821.56;5104697;28;20043;-73
2023/03/07 10:19:48;;;;;;;15.10;12.05;;;;;;;8.90;41.74;97858.00;5105492;28;20035;-74
2023/03/07 10:22:20;;;;;;;9.65;7.70;;;;;;;8.68;41.99;97806.72;5105724;28;20058;-74
2023/03/07 10:25:16;;;;;;;10.43;8.30;;;;;;;8.87;40.40;97805.38;5104669;28;20296;-73
2023/03/07 10:27:47;;;;;;;10.80;8.70;;;;;;;8.74;40.58;97780.81;5104399;28;20040;-74
2023/03/07 10:30:16;;;;;;;11.95;8.43;;;;;;;9.10;41.40;97838.06;5104546;28;20044;-73
2023/03/07 10:32:46;;;;;;;11.50;8.07;;;;;;;8.95;41.54;97810.97;5104598;28;20044;-73
2023/03/07 10:35:19;;;;;;;14.88;10.07;;;;;;;9.02;41.69;97798.97;5104861;28;20040;-74
2023/03/07 10:37:52;;;;;;;14.32;10.48;;;;;;;8.99;42.03;97805.34;5104816;28;20089;-74
2023/03/07 10:40:25;;;;;;;13.23;9.90;;;;;;;8.87;41.06;97787.75;5105084;28;20165;-73
2023/03/07 10:42:54;;;;;;;13.10;9.80;;;;;;;9.00;42.47;97816.75;5105120;28;20089;-73
2023/03/07 10:45:21;;;;;;;15.43;10.55;;;;;;;8.61;42.76;97759.72;5105420;28;20296;-74
2023/03/07 10:47:48;;;;;;;11.85;9.13;;;;;;;8.68;42.62;97795.31;5105222;28;20036;-74
2023/03/07 10:50:39;;;;;;;15.02;10.48;;;;;;;8.84;40.94;97817.03;5105305;28;20036;-74
2023/03/07 10:53:18;;;;;;;11.60;8.88;;;;;;;8.86;42.35;97812.47;5105699;28;20077;-73
2023/03/07 10:55:45;;;;;;;14.35;10.77;;;;;;;8.67;42.82;97773.34;5104155;28;20052;-74
2023/03/07 10:58:18;;;;;;;14.05;11.13;;;;;;;8.84;41.55;97806.44;5107410;28;20044;-74
2023/03/07 11:00:46;;;;;;;13.30;10.63;;;;;;;8.76;42.40;97803.53;5109500;28;20125;-73
2023/03/07 11:03:25;;;;;;;13.95;10.40;;;;;;;8.72;40.87;97806.50;5109239;28;20040;-74
2023/03/07 11:05:53;;;;;;;16.90;10.10;;;;;;;8.47;42.79;97776.56;5109472;28;20043;-74
2023/03/07 11:08:37;;;;;;;14.50;9.95;;;;;;;8.49;42.29;97795.78;5109174;28;20050;-73
2023/03/07 11:11:05;;;;;;;16.38;10.93;;;;;;;7.77;43.64;97701.56;5109070;28;20036;-73
2023/03/07 11:13:33;;;;;;;14.18;10.50;;;;;;;8.25;43.72;97763.22;5109280;28;20195;-73
2023/03/07 11:16:16;;;;;;;15.45;11.48;;;;;;;8.41;43.51;97789.38;5108225;28;20055;-73
2023/03/07 11:18:44;;;;;;;15.93;11.70;;;;;;;8.31;44.31;97742.50;5108919;28;20047;-74
2023/03/07 11:21:29;;;;;;;15.20;10.77;;;;;;;8.47;43.96;97776.56;5107947;28;20383;-73
2023/03/07 11:24:00;;;;;;;16.65;11.98;;;;;;;8.45;44.41;97770.56;5109217;28;20047;-74
2023/03/07 11:26:31;;;;;;;17.23;11.90;;;;;;;8.48;44.40;97759.78;5108947;28;20200;-74
2023/03/07 11:29:08;;;;;;;19.08;11.77;;;;;;;8.54;44.33;97754.06;5108774;28;20048;-73
2023/03/07 11:31:43;;;;;;;16.98;12.13;;;;;;;8.63;44.16;97748.09;5108732;28;20154;-73
2023/03/07 11:34:24;;;;;;;14.70;10.07;;;;;;;8.79;44.01;97755.75;5108750;28;20042;-74